Time;durP1;ratioP1;P1;durP2;ratioP2;P2;SDS_P1;SDS_P2;PMS_P1;PMS_P2;Temp;Humidity;BMP_temperature;BMP_pressure;BME280_temperature;BME280_humidity;BME280_pressure;Samples;Min_cycle;Max_cycle;Signal;HPM_P1;HPM_P2
2022/06/30 00:01:05;;;;;;;6.15;5.80;;;23.20;56.90;;;;;;20675;6863;118473;31
2022/06/30 00:03:30;;;;;;;7.20;6.70;;;23.10;56.70;;;;;;20462;6863;310180;31
2022/06/30 00:05:56;;;;;;;6.87;6.37;;;23.30;57.00;;;;;;20668;6863;120682;31
2022/06/30 00:08:21;;;;;;;7.40;6.97;;;23.20;56.90;;;;;;20461;6863;279516;31
2022/06/30 00:10:47;;;;;;;6.70;6.30;;;23.30;57.20;;;;;;20684;6863;117127;31
2022/06/30 00:13:12;;;;;;;7.10;6.60;;;23.20;57.50;;;;;;20477;6863;281061;31
2022/06/30 00:15:38;;;;;;;6.72;6.28;;;23.20;57.30;;;;;;20666;6863;117718;31
2022/06/30 00:18:04;;;;;;;7.65;7.05;;;23.10;57.20;;;;;;20474;6863;309074;31
2022/06/30 00:20:29;;;;;;;7.18;6.78;;;23.20;57.40;;;;;;20470;6863;341004;31
2022/06/30 00:22:55;;;;;;;7.22;6.72;;;23.40;57.20;;;;;;20485;6863;280839;31
2022/06/30 00:25:20;;;;;;;6.90;6.50;;;23.70;56.60;;;;;;20692;6863;117268;31
2022/06/30 00:27:46;;;;;;;7.83;7.23;;;23.40;56.50;;;;;;20462;6863;279179;31
2022/06/30 00:30:12;;;;;;;8.18;7.62;;;23.40;56.80;;;;;;20474;6863;307630;31
2022/06/30 00:32:37;;;;;;;8.60;8.00;;;23.50;56.70;;;;;;20479;6863;309978;31
2022/06/30 00:35:03;;;;;;;7.47;6.77;;;23.70;56.60;;;;;;20686;6863;117513;31
2022/06/30 00:37:29;;;;;;;7.40;6.90;;;23.40;56.70;;;;;;20479;6863;279084;31
2022/06/30 00:39:54;;;;;;;7.00;6.60;;;23.30;57.00;;;;;;20666;6863;120444;31
2022/06/30 00:42:20;;;;;;;6.93;6.53;;;23.20;57.20;;;;;;20689;6863;117081;31
2022/06/30 00:44:45;;;;;;;7.10;6.60;;;22.80;57.60;;;;;;20479;6863;278944;31
2022/06/30 00:47:14;;;;;;;7.33;6.67;;;22.90;57.40;;;;;;20683;6863;119318;31
2022/06/30 00:49:39;;;;;;;7.10;6.70;;;22.80;57.50;;;;;;20664;6863;117617;31
2022/06/30 00:52:05;;;;;;;6.70;6.10;;;22.60;57.90;;;;;;20677;6863;118948;31
2022/06/30 00:54:32;;;;;;;6.90;6.40;;;22.40;58.10;;;;;;20459;6863;280001;31
2022/06/30 00:56:59;;;;;;;6.17;5.67;;;22.60;57.70;;;;;;20687;6863;117404;31
2022/06/30 00:59:24;;;;;;;6.82;6.22;;;22.60;57.60;;;;;;20468;6863;338591;31
2022/06/30 01:01:50;;;;;;;6.45;6.03;;;22.80;57.10;;;;;;20448;6863;293438;31
2022/06/30 01:04:16;;;;;;;6.93;6.32;;;23.10;56.50;;;;;;20695;6863;117471;31
2022/06/30 01:06:44;;;;;;;6.10;5.70;;;23.00;56.50;;;;;;20698;6861;119433;31
2022/06/30 01:09:10;;;;;;;7.00;6.50;;;22.70;56.80;;;;;;20485;6862;309120;31
2022/06/30 01:14:20;;;;;;;5.70;5.40;;;22.80;56.40;;;;;;20690;6863;116937;31
2022/06/30 01:16:47;;;;;;;6.93;6.20;;;22.50;56.80;;;;;;20691;6863;116945;31
2022/06/30 01:19:14;;;;;;;6.53;6.13;;;22.30;57.10;;;;;;20694;6863;117906;31
2022/06/30 01:21:39;;;;;;;6.20;5.80;;;22.20;57.40;;;;;;20663;6863;147204;31
2022/06/30 01:24:05;;;;;;;5.65;5.35;;;22.00;57.50;;;;;;20690;6863;117161;31
2022/06/30 01:26:30;;;;;;;5.67;5.33;;;22.00;57.80;;;;;;20685;6863;117767;31
2022/06/30 01:29:00;;;;;;;6.10;5.70;;;21.90;58.00;;;;;;20681;6863;117463;31
2022/06/30 01:31:25;;;;;;;6.70;6.30;;;21.80;58.10;;;;;;20471;6863;279497;31
2022/06/30 01:33:51;;;;;;;6.57;6.07;;;22.10;57.50;;;;;;20676;6863;126918;31
2022/06/30 01:36:17;;;;;;;6.23;5.83;;;22.10;57.20;;;;;;20701;6863;68931;31
2022/06/30 01:38:42;;;;;;;6.78;6.40;;;22.00;57.50;;;;;;20473;6863;310756;31
2022/06/30 01:41:08;;;;;;;6.87;6.43;;;22.20;57.30;;;;;;20684;6863;117703;31
2022/06/30 01:43:33;;;;;;;6.73;6.33;;;22.20;57.30;;;;;;20684;6863;117570;31
2022/06/30 01:45:59;;;;;;;6.80;6.32;;;22.00;57.60;;;;;;20467;6863;278742;31
2022/06/30 01:48:24;;;;;;;6.30;5.90;;;22.20;57.50;;;;;;20477;6863;340619;31
2022/06/30 01:50:50;;;;;;;5.87;5.47;;;22.50;57.00;;;;;;20687;6863;121064;31
2022/06/30 01:53:16;;;;;;;6.53;6.07;;;22.40;57.10;;;;;;20466;6863;280166;31
2022/06/30 01:55:41;;;;;;;6.40;6.00;;;22.60;57.10;;;;;;20677;6863;120139;31
2022/06/30 01:58:07;;;;;;;6.60;6.00;;;22.40;56.90;;;;;;20702;6863;117206;31
2022/06/30 02:00:32;;;;;;;7.28;6.70;;;22.20;57.20;;;;;;20478;6863;277972;31
2022/06/30 02:02:58;;;;;;;7.00;6.60;;;22.30;57.20;;;;;;20491;6863;337862;31
2022/06/30 02:05:23;;;;;;;7.65;7.00;;;22.50;57.00;;;;;;20478;6863;320302;31
2022/06/30 02:07:49;;;;;;;6.90;6.20;;;22.70;56.30;;;;;;20694;6863;129294;31
2022/06/30 02:10:15;;;;;;;7.72;7.12;;;22.50;56.60;;;;;;20471;6863;307392;31
2022/06/30 02:12:47;;;;;;;7.57;7.12;;;22.50;57.40;;;;;;20681;6863;118181;31
2022/06/30 02:15:16;;;;;;;8.03;7.43;;;22.30;57.70;;;;;;20482;6863;278846;31
2022/06/30 02:17:41;;;;;;;8.77;8.10;;;22.30;57.90;;;;;;20456;6863;310684;31
2022/06/30 02:20:07;;;;;;;7.77;6.83;;;22.60;57.40;;;;;;20686;6862;117568;31
2022/06/30 02:22:32;;;;;;;7.03;6.53;;;22.40;57.50;;;;;;20725;6863;117510;31
2022/06/30 02:24:58;;;;;;;7.72;7.22;;;22.10;58.10;;;;;;20496;6863;322057;31
2022/06/30 02:27:24;;;;;;;7.47;6.97;;;22.10;57.90;;;;;;20718;6863;116102;31
2022/06/30 02:29:50;;;;;;;7.97;7.17;;;22.00;57.90;;;;;;20665;6863;117996;31
2022/06/30 02:32:15;;;;;;;9.52;7.80;;;21.80;58.50;;;;;;20686;6863;120632;31
2022/06/30 02:34:40;;;;;;;8.18;7.60;;;21.60;59.00;;;;;;20479;6863;278540;31
2022/06/30 02:37:06;;;;;;;6.67;6.37;;;21.80;59.30;;;;;;20690;6863;117382;31
2022/06/30 02:39:31;;;;;;;7.90;7.30;;;21.70;59.20;;;;;;20481;6863;279419;31
2022/06/30 02:41:57;;;;;;;7.27;6.87;;;21.90;58.80;;;;;;20662;6863;119012;31
2022/06/30 02:44:22;;;;;;;7.65;7.15;;;21.80;58.60;;;;;;20480;6863;292000;31
2022/06/30 02:46:50;;;;;;;7.50;6.90;;;22.00;58.20;;;;;;20694;6863;120114;31
2022/06/30 02:49:15;;;;;;;7.07;6.55;;;21.90;58.10;;;;;;20683;6863;117005;31
2022/06/30 02:51:39;;;;;;;7.05;6.55;;;21.70;58.60;;;;;;20665;6863;120910;31
2022/06/30 02:54:06;;;;;;;6.13;5.67;;;21.40;59.00;;;;;;20692;6863;120157;31
2022/06/30 02:56:32;;;;;;;7.37;6.87;;;21.30;59.40;;;;;;20479;6863;278333;31
2022/06/30 02:58:57;;;;;;;8.70;6.80;;;21.50;59.40;;;;;;20469;6863;309043;31
2022/06/30 03:01:23;;;;;;;7.80;7.00;;;21.90;58.40;;;;;;20472;6863;308034;31
2022/06/30 03:03:48;;;;;;;6.77;6.37;;;22.10;57.50;;;;;;20665;6863;121055;31
2022/06/30 03:06:14;;;;;;;6.20;5.80;;;22.00;57.70;;;;;;20686;6863;117860;31
2022/06/30 03:08:39;;;;;;;7.03;6.33;;;21.70;58.30;;;;;;20689;6863;117789;31
2022/06/30 03:11:05;;;;;;;7.07;6.68;;;21.50;58.90;;;;;;20685;6863;117829;31
2022/06/30 03:13:31;;;;;;;6.50;6.10;;;21.30;59.20;;;;;;20684;6863;117237;31
2022/06/30 03:15:56;;;;;;;6.80;6.23;;;21.10;59.40;;;;;;20674;6863;118735;31
2022/06/30 03:18:22;;;;;;;6.62;6.32;;;21.00;59.80;;;;;;20688;6863;117112;31
2022/06/30 03:20:47;;;;;;;11.32;6.70;;;20.90;60.00;;;;;;20454;6863;310937;31
2022/06/30 03:23:14;;;;;;;5.97;5.57;;;21.20;59.70;;;;;;20689;6863;121652;31
2022/06/30 03:25:40;;;;;;;6.17;5.87;;;21.20;59.40;;;;;;20455;6863;281725;31
2022/06/30 03:28:05;;;;;;;6.53;6.12;;;21.40;58.80;;;;;;20677;6863;117208;31
2022/06/30 03:30:31;;;;;;;6.30;5.70;;;21.40;58.60;;;;;;20679;6861;117056;31
2022/06/30 03:32:58;;;;;;;7.03;5.67;;;21.20;58.90;;;;;;20695;6862;117163;31
2022/06/30 03:35:23;;;;;;;6.73;6.13;;;21.00;59.40;;;;;;20688;6863;117687;31
2022/06/30 03:37:49;;;;;;;6.27;5.83;;;20.90;59.50;;;;;;20670;6863;117115;31
2022/06/30 03:40:15;;;;;;;7.37;6.80;;;20.80;59.60;;;;;;20476;6862;278124;31
2022/06/30 03:42:40;;;;;;;7.47;6.85;;;21.00;59.10;;;;;;20485;6862;309061;31
2022/06/30 03:45:06;;;;;;;7.72;7.03;;;21.30;58.40;;;;;;20687;6862;117102;31
2022/06/30 03:47:33;;;;;;;7.33;6.93;;;21.30;58.40;;;;;;20692;6862;117296;31
2022/06/30 03:49:59;;;;;;;10.50;7.70;;;21.00;59.00;;;;;;20676;6863;117368;31
2022/06/30 03:52:24;;;;;;;8.00;7.40;;;20.80;59.60;;;;;;20654;6870;117515;31
2022/06/30 03:54:50;;;;;;;8.23;7.62;;;20.60;60.10;;;;;;20475;6865;308530;31
2022/06/30 03:57:15;;;;;;;7.72;7.18;;;20.80;60.40;;;;;;20664;6867;119175;31
2022/06/30 03:59:41;;;;;;;7.78;7.20;;;20.90;60.30;;;;;;20656;6865;117133;31
2022/06/30 04:02:07;;;;;;;7.57;7.10;;;20.80;60.60;;;;;;20429;6878;279429;31
2022/06/30 04:04:32;;;;;;;8.33;7.63;;;21.00;60.20;;;;;;20486;6863;307870;31
2022/06/30 04:06:58;;;;;;;6.80;6.40;;;21.40;59.10;;;;;;20687;6863;119936;31
2022/06/30 04:09:23;;;;;;;7.33;6.83;;;21.30;58.90;;;;;;20685;6863;117720;31
2022/06/30 04:11:49;;;;;;;6.97;6.40;;;21.10;59.30;;;;;;20653;6856;120360;31
2022/06/30 04:14:14;;;;;;;7.65;7.15;;;21.00;59.80;;;;;;20503;6856;280462;31
2022/06/30 04:16:41;;;;;;;7.87;6.10;;;21.20;59.20;;;;;;20713;6856;117029;31
2022/06/30 04:19:07;;;;;;;6.60;6.20;;;21.30;59.20;;;;;;20496;6856;310459;31
2022/06/30 04:21:32;;;;;;;7.40;6.78;;;21.50;59.00;;;;;;20681;6856;121979;31
2022/06/30 04:23:58;;;;;;;7.30;6.83;;;21.40;58.80;;;;;;20681;6856;117085;31
2022/06/30 04:26:23;;;;;;;6.87;6.40;;;21.30;59.10;;;;;;20718;6856;117039;31
2022/06/30 04:28:49;;;;;;;6.75;6.35;;;21.10;59.30;;;;;;20510;6856;293611;31
2022/06/30 04:34:00;;;;;;;6.70;6.20;;;21.30;58.90;;;;;;20717;6856;117263;31
2022/06/30 04:36:25;;;;;;;7.00;6.53;;;21.20;59.40;;;;;;20718;6856;121110;31
2022/06/30 04:38:51;;;;;;;6.95;6.45;;;21.10;59.80;;;;;;20508;6856;308411;31
2022/06/30 04:41:23;;;;;;;7.40;6.90;;;21.30;59.40;;;;;;20491;6856;320917;31
2022/06/30 04:43:49;;;;;;;7.70;7.20;;;21.70;58.50;;;;;;20486;6855;307999;31
2022/06/30 04:46:14;;;;;;;7.17;6.67;;;22.00;57.50;;;;;;20715;6855;117341;31
2022/06/30 04:48:40;;;;;;;7.65;7.10;;;21.90;57.50;;;;;;20505;6856;309325;31
2022/06/30 04:51:05;;;;;;;7.18;6.57;;;22.00;57.30;;;;;;20667;6872;117051;31
2022/06/30 04:53:31;;;;;;;7.78;7.18;;;21.80;57.50;;;;;;20491;6856;308239;31
2022/06/30 04:55:56;;;;;;;8.32;7.80;;;21.90;57.30;;;;;;20471;6856;325796;31
2022/06/30 04:58:23;;;;;;;7.17;6.60;;;22.10;56.90;;;;;;20711;6856;119148;31
2022/06/30 05:00:49;;;;;;;6.87;6.37;;;21.90;57.10;;;;;;20702;6856;117319;31
2022/06/30 05:03:14;;;;;;;7.37;6.77;;;21.60;57.70;;;;;;20711;6856;120724;31
2022/06/30 05:05:40;;;;;;;6.70;6.30;;;21.40;58.30;;;;;;20692;6856;118836;31
2022/06/30 05:08:05;;;;;;;6.83;6.23;;;21.20;58.80;;;;;;20714;6856;117394;31
2022/06/30 05:10:32;;;;;;;7.17;6.47;;;21.10;59.30;;;;;;20711;6856;117375;31
2022/06/30 05:12:58;;;;;;;7.47;6.87;;;21.00;59.70;;;;;;20497;6856;308810;31
2022/06/30 05:15:23;;;;;;;7.85;7.35;;;21.30;59.80;;;;;;20500;6856;306703;31
2022/06/30 05:17:49;;;;;;;6.82;6.25;;;21.70;58.90;;;;;;20692;6856;117634;31
2022/06/30 05:20:15;;;;;;;7.70;7.10;;;21.70;58.70;;;;;;20708;6856;117006;31
2022/06/30 05:22:40;;;;;;;6.77;6.40;;;21.60;59.20;;;;;;20696;6856;118706;31
2022/06/30 05:27:51;;;;;;;7.40;6.70;;;21.70;59.40;;;;;;20531;6856;307197;31
2022/06/30 05:30:17;;;;;;;6.90;6.50;;;22.10;58.50;;;;;;20755;6856;116490;31
2022/06/30 05:32:42;;;;;;;6.80;6.30;;;22.10;58.30;;;;;;20708;6856;117144;31
2022/06/30 05:35:08;;;;;;;7.73;6.60;;;22.00;58.60;;;;;;20688;6856;117126;31
2022/06/30 05:37:33;;;;;;;7.80;7.30;;;21.80;58.90;;;;;;20477;6856;309151;31
2022/06/30 05:39:59;;;;;;;7.93;7.33;;;22.00;58.30;;;;;;20472;6856;331894;31
2022/06/30 05:42:26;;;;;;;7.95;7.35;;;22.40;57.60;;;;;;20453;6856;278904;31
2022/06/30 05:44:51;;;;;;;7.93;7.33;;;22.70;57.00;;;;;;20692;6856;117425;31
2022/06/30 05:47:17;;;;;;;7.10;6.50;;;22.60;57.00;;;;;;20480;6856;279019;31
2022/06/30 05:49:42;;;;;;;7.12;6.60;;;22.70;56.50;;;;;;20464;6856;281631;31
2022/06/30 05:52:08;;;;;;;6.78;6.22;;;23.00;56.00;;;;;;20470;6856;309315;31
2022/06/30 05:54:34;;;;;;;6.90;6.40;;;23.20;55.50;;;;;;20689;6854;117254;31
2022/06/30 05:56:59;;;;;;;6.83;6.33;;;23.20;55.70;;;;;;20698;6855;117369;31
2022/06/30 05:59:25;;;;;;;6.63;6.03;;;23.00;56.30;;;;;;20692;6855;117387;31
2022/06/30 06:01:50;;;;;;;6.40;6.00;;;22.80;56.80;;;;;;20670;6856;117206;31
2022/06/30 06:04:16;;;;;;;7.10;6.40;;;22.70;57.30;;;;;;20688;6856;117271;31
2022/06/30 06:06:41;;;;;;;7.33;6.63;;;22.80;57.80;;;;;;20693;6856;117910;31
2022/06/30 06:09:08;;;;;;;6.30;5.70;;;22.80;57.80;;;;;;20700;6856;120417;31
2022/06/30 06:11:36;;;;;;;5.07;4.73;;;22.80;58.10;;;;;;20684;6856;116229;31
2022/06/30 06:14:01;;;;;;;5.47;5.07;;;23.10;58.80;;;;;;20442;6872;338941;31
2022/06/30 06:16:26;;;;;;;5.40;5.00;;;24.00;56.00;;;;;;20488;6856;278370;31
2022/06/30 06:18:52;;;;;;;5.00;4.60;;;25.40;53.40;;;;;;20489;6856;329281;31
2022/06/30 06:21:18;;;;;;;5.10;4.70;;;26.60;50.80;;;;;;20690;6856;117675;31
2022/06/30 06:23:44;;;;;;;5.57;4.50;;;27.30;50.70;;;;;;20678;6856;127024;31
2022/06/30 06:26:10;;;;;;;5.77;4.87;;;27.70;50.40;;;;;;20700;6856;117089;31
2022/06/30 06:31:21;;;;;;;4.20;4.00;;;28.90;45.70;;;;;;20473;6856;307956;31
2022/06/30 06:33:48;;;;;;;4.83;4.53;;;29.90;43.70;;;;;;20680;6856;117143;31
2022/06/30 06:36:12;;;;;;;4.80;4.40;;;30.30;44.30;;;;;;20692;6856;117463;31
2022/06/30 06:38:37;;;;;;;4.70;4.30;;;30.50;44.50;;;;;;20692;6856;117070;31
2022/06/30 06:41:04;;;;;;;4.47;4.07;;;30.60;44.60;;;;;;20671;6856;117116;31
2022/06/30 06:43:28;;;;;;;4.70;4.33;;;30.80;44.50;;;;;;20685;6856;123745;31
2022/06/30 06:45:54;;;;;;;4.17;3.87;;;31.00;44.10;;;;;;20670;6856;123215;31
2022/06/30 06:48:20;;;;;;;4.40;4.00;;;31.20;43.70;;;;;;20681;6856;117142;31
2022/06/30 06:50:45;;;;;;;4.82;4.40;;;31.40;43.10;;;;;;20677;6856;117070;31
2022/06/30 06:53:11;;;;;;;4.00;3.80;;;31.70;42.90;;;;;;20698;6856;121137;31
2022/06/30 06:55:37;;;;;;;4.37;3.80;;;31.80;42.50;;;;;;20465;6856;279219;31
2022/06/30 06:58:05;;;;;;;4.90;3.97;;;32.50;39.20;;;;;;20478;6856;338298;31
2022/06/30 07:00:30;;;;;;;3.80;3.60;;;33.10;38.20;;;;;;20693;6856;117127;31
2022/06/30 07:02:55;;;;;;;3.85;3.55;;;33.30;38.90;;;;;;20477;6856;315782;31
2022/06/30 07:05:21;;;;;;;3.95;3.65;;;33.60;37.00;;;;;;20485;6854;337780;31
2022/06/30 07:07:46;;;;;;;3.93;3.73;;;34.00;36.10;;;;;;20689;6855;117165;31
2022/06/30 07:10:13;;;;;;;3.70;3.50;;;34.00;37.10;;;;;;20650;6855;117149;31
2022/06/30 07:12:37;;;;;;;3.80;3.60;;;33.90;37.60;;;;;;20480;6856;338532;31
2022/06/30 07:15:03;;;;;;;3.77;3.57;;;34.10;36.00;;;;;;20707;6856;117723;31
2022/06/30 07:17:29;;;;;;;4.03;3.70;;;34.10;36.60;;;;;;20705;6856;119103;31
2022/06/30 07:19:54;;;;;;;5.00;4.37;;;33.90;37.10;;;;;;20656;6856;123933;31
2022/06/30 07:22:20;;;;;;;3.77;3.50;;;33.70;37.30;;;;;;20714;6856;118730;31
2022/06/30 07:24:45;;;;;;;4.30;3.80;;;33.50;37.70;;;;;;20502;6856;295362;31
2022/06/30 07:27:12;;;;;;;4.60;4.00;;;33.70;36.60;;;;;;20717;6856;117667;31
2022/06/30 07:29:37;;;;;;;4.20;3.90;;;33.70;37.00;;;;;;20470;6856;309253;31
2022/06/30 07:32:03;;;;;;;5.00;4.60;;;33.70;37.30;;;;;;20697;6856;124246;31
2022/06/30 07:34:29;;;;;;;4.67;4.27;;;33.60;37.60;;;;;;20490;6856;279721;31
2022/06/30 07:36:54;;;;;;;6.37;4.80;;;33.60;36.50;;;;;;20692;6856;119170;31
2022/06/30 07:39:20;;;;;;;4.60;4.20;;;33.40;37.50;;;;;;20492;6856;310530;31
2022/06/30 07:41:45;;;;;;;7.22;4.30;;;33.30;37.40;;;;;;20697;6856;119082;31
2022/06/30 07:44:11;;;;;;;6.30;4.40;;;33.10;37.70;;;;;;20455;6872;310877;31
2022/06/30 07:46:37;;;;;;;4.20;3.90;;;33.00;38.20;;;;;;20770;6856;119292;31
2022/06/30 07:49:02;;;;;;;5.60;4.60;;;32.80;38.70;;;;;;20769;6856;116677;31
2022/06/30 07:51:28;;;;;;;4.90;4.60;;;32.50;39.40;;;;;;20746;6856;117646;31
2022/06/30 07:53:53;;;;;;;4.93;4.50;;;32.20;39.50;;;;;;20534;6856;314029;31
2022/06/30 07:56:19;;;;;;;4.70;4.40;;;32.30;39.20;;;;;;20773;6856;120238;31
2022/06/30 07:58:44;;;;;;;4.85;4.55;;;32.30;39.40;;;;;;20551;6856;308405;31
2022/06/30 08:01:10;;;;;;;4.73;4.43;;;32.50;39.30;;;;;;20761;6856;121172;31
2022/06/30 08:03:36;;;;;;;4.13;3.93;;;32.50;39.20;;;;;;20737;6856;146369;31
2022/06/30 08:06:01;;;;;;;4.87;4.43;;;32.30;39.30;;;;;;20508;6856;309232;31
2022/06/30 08:08:27;;;;;;;4.22;4.03;;;32.40;39.40;;;;;;20691;6856;123525;31
2022/06/30 08:10:53;;;;;;;4.78;4.37;;;32.40;39.40;;;;;;20483;6856;310895;31
2022/06/30 08:13:18;;;;;;;4.97;4.45;;;32.60;39.70;;;;;;20485;6856;306651;31
2022/06/30 08:15:43;;;;;;;4.50;4.20;;;32.80;38.40;;;;;;20463;6856;311626;31
2022/06/30 08:18:09;;;;;;;4.40;4.00;;;33.00;38.00;;;;;;20725;6854;116572;31
2022/06/30 08:20:34;;;;;;;5.00;4.60;;;32.90;38.50;;;;;;20752;6855;121049;31
2022/06/30 08:23:00;;;;;;;4.90;4.50;;;32.70;38.70;;;;;;20722;6856;118258;31
2022/06/30 08:25:26;;;;;;;5.20;4.25;;;32.50;39.20;;;;;;20491;6856;283716;31
2022/06/30 08:27:52;;;;;;;5.03;4.62;;;32.70;38.20;;;;;;20478;6856;310319;31
2022/06/30 08:30:18;;;;;;;4.77;4.33;;;33.00;38.00;;;;;;20702;6856;117835;31
2022/06/30 08:32:43;;;;;;;4.72;4.43;;;33.00;38.20;;;;;;20711;6856;118697;31
2022/06/30 08:35:09;;;;;;;4.53;4.20;;;32.90;38.60;;;;;;20708;6856;123079;31
2022/06/30 08:37:34;;;;;;;5.10;4.53;;;32.70;38.70;;;;;;20706;6856;117317;31
2022/06/30 08:42:45;;;;;;;4.53;4.23;;;32.60;38.70;;;;;;20500;6856;299925;31
2022/06/30 08:45:14;;;;;;;4.30;4.00;;;32.90;37.40;;;;;;20496;6856;279648;31
2022/06/30 08:47:39;;;;;;;4.22;3.70;;;33.20;37.20;;;;;;20475;6856;293461;31
2022/06/30 08:50:05;;;;;;;4.47;3.90;;;33.40;35.80;;;;;;20473;6856;308920;31
2022/06/30 08:52:31;;;;;;;5.00;4.60;;;33.70;36.90;;;;;;20477;6856;279641;31
2022/06/30 08:54:56;;;;;;;4.27;3.83;;;33.90;36.90;;;;;;20491;6856;308151;31
2022/06/30 08:57:22;;;;;;;4.07;3.67;;;34.10;36.10;;;;;;20672;6856;121765;31
2022/06/30 08:59:47;;;;;;;4.10;3.72;;;34.00;36.50;;;;;;20463;6856;308795;31
2022/06/30 09:02:13;;;;;;;4.30;4.00;;;34.10;37.00;;;;;;20669;6856;123474;31
2022/06/30 09:04:38;;;;;;;3.47;3.27;;;34.10;36.30;;;;;;20464;6856;307858;31
2022/06/30 09:07:05;;;;;;;4.27;3.87;;;34.10;33.80;;;;;;20471;6856;308381;31
2022/06/30 09:09:31;;;;;;;4.37;3.80;;;34.30;34.70;;;;;;20480;6856;280366;31
2022/06/30 09:11:56;;;;;;;3.83;3.53;;;34.40;34.10;;;;;;20460;6856;278731;31
2022/06/30 09:14:39;;;;;;;4.37;3.60;;;34.40;33.80;;;;;;20471;6856;305353;31
2022/06/30 09:17:04;;;;;;;4.13;3.50;;;34.50;32.60;;;;;;20474;6856;279075;31
2022/06/30 09:19:30;;;;;;;3.80;3.50;;;34.50;33.70;;;;;;20680;6856;116904;31
2022/06/30 09:22:08;;;;;;;4.03;3.60;;;34.30;33.90;;;;;;20464;6856;287564;31
2022/06/30 09:24:33;;;;;;;4.30;3.77;;;34.30;32.80;;;;;;20480;6856;279480;31
2022/06/30 09:27:24;;;;;;;4.12;3.70;;;34.30;33.60;;;;;;20483;6856;341653;31
2022/06/30 09:29:51;;;;;;;5.37;4.03;;;34.30;32.90;;;;;;20561;6872;118368;31
2022/06/30 09:32:16;;;;;;;4.10;3.80;;;34.10;33.60;;;;;;20647;6867;117225;31
2022/06/30 09:34:43;;;;;;;6.80;3.83;;;33.90;34.00;;;;;;20671;6861;117611;31
2022/06/30 09:37:18;;;;;;;4.20;3.80;;;33.70;34.50;;;;;;20454;6863;299238;31
2022/06/30 09:39:45;;;;;;;3.70;3.40;;;33.70;33.90;;;;;;20615;6867;117234;31
2022/06/30 09:42:10;;;;;;;3.87;3.50;;;33.70;35.00;;;;;;20400;6882;280993;31
2022/06/30 09:44:36;;;;;;;3.80;3.50;;;33.90;34.50;;;;;;20406;6882;309142;31
2022/06/30 09:47:06;;;;;;;4.40;4.00;;;34.10;33.70;;;;;;20613;6882;117264;31
2022/06/30 09:49:34;;;;;;;4.10;3.70;;;34.10;34.50;;;;;;20428;6869;301429;31
2022/06/30 09:51:59;;;;;;;4.20;3.80;;;34.20;34.10;;;;;;20414;6869;307482;31
2022/06/30 09:54:26;;;;;;;4.80;4.10;;;34.40;33.90;;;;;;20432;6869;308757;31
2022/06/30 09:57:02;;;;;;;4.10;3.70;;;34.60;33.40;;;;;;20439;6869;312726;31
2022/06/30 09:59:28;;;;;;;5.00;3.60;;;34.70;32.70;;;;;;20641;6869;117118;31
2022/06/30 10:01:53;;;;;;;3.70;3.40;;;34.70;33.20;;;;;;20624;6869;122138;31
2022/06/30 10:04:19;;;;;;;4.12;3.83;;;34.40;33.20;;;;;;20438;6869;337349;31
2022/06/30 10:06:44;;;;;;;4.23;3.70;;;34.50;33.90;;;;;;20656;6863;117234;31
2022/06/30 10:09:10;;;;;;;4.12;3.75;;;34.50;33.90;;;;;;20408;6875;280898;31
2022/06/30 10:11:36;;;;;;;4.40;3.57;;;34.60;33.60;;;;;;20626;6867;117281;31
2022/06/30 10:14:02;;;;;;;3.97;3.62;;;34.60;33.90;;;;;;20443;6862;314289;31
2022/06/30 10:16:28;;;;;;;4.95;3.97;;;34.70;33.10;;;;;;20459;6862;339841;31
2022/06/30 10:18:53;;;;;;;4.17;3.77;;;34.90;32.50;;;;;;20657;6862;117640;31
2022/06/30 10:21:22;;;;;;;4.07;3.70;;;34.80;32.80;;;;;;20659;6867;117438;31
2022/06/30 10:23:47;;;;;;;4.07;3.70;;;34.60;33.40;;;;;;20434;6863;280770;31
2022/06/30 10:27:12;;;;;;;4.50;4.10;;;34.70;32.80;;;;;;20457;6863;338197;31
2022/06/30 10:28:38;;;;;;;4.10;3.70;;;35.00;33.90;;;;;;20602;6863;117461;31
2022/06/30 10:31:16;;;;;;;5.87;4.00;;;35.00;33.50;;;;;;20442;6867;280690;31
2022/06/30 10:34:02;;;;;;;7.07;3.90;;;35.00;33.10;;;;;;20620;6863;117430;31
2022/06/30 10:36:31;;;;;;;4.10;3.70;;;34.80;33.40;;;;;;20661;6864;117565;31
2022/06/30 10:39:10;;;;;;;4.47;4.00;;;34.60;33.70;;;;;;20422;6863;308691;31
2022/06/30 10:41:42;;;;;;;4.90;4.43;;;34.70;34.00;;;;;;19072;7225;120567;31
2022/06/30 10:44:09;;;;;;;4.30;3.90;;;34.70;33.70;;;;;;20347;6861;310166;31
2022/06/30 10:46:34;;;;;;;4.67;4.20;;;34.80;34.70;;;;;;20664;6861;117089;31
2022/06/30 10:49:07;;;;;;;4.23;3.93;;;34.80;34.00;;;;;;20656;6864;119322;31
2022/06/30 10:51:33;;;;;;;4.55;4.10;;;34.60;34.10;;;;;;20375;6882;309006;31
2022/06/30 10:53:58;;;;;;;3.93;3.73;;;34.70;34.00;;;;;;20606;6864;120821;31
2022/06/30 10:56:25;;;;;;;4.23;3.90;;;34.60;34.00;;;;;;20644;6865;117381;31
2022/06/30 10:59:07;;;;;;;5.77;4.33;;;34.40;34.50;;;;;;20563;6867;119631;31
2022/06/30 11:01:32;;;;;;;4.80;4.40;;;34.20;34.10;;;;;;20651;6867;117298;31
2022/06/30 11:03:58;;;;;;;4.33;3.93;;;34.10;34.30;;;;;;20661;6862;119351;31
2022/06/30 11:06:26;;;;;;;4.47;4.07;;;34.00;34.50;;;;;;20408;6877;280683;31
2022/06/30 11:08:50;;;;;;;4.37;4.07;;;34.10;34.50;;;;;;20460;6862;279947;31
2022/06/30 11:11:21;;;;;;;4.40;4.10;;;34.40;33.50;;;;;;20471;6867;309291;31
2022/06/30 11:13:55;;;;;;;4.30;3.85;;;34.60;33.00;;;;;;20442;6867;280956;31
2022/06/30 11:16:22;;;;;;;4.30;3.90;;;34.70;33.20;;;;;;20454;6867;309927;31
2022/06/30 11:18:46;;;;;;;4.53;4.20;;;34.80;33.90;;;;;;20672;6863;116999;31
2022/06/30 11:21:12;;;;;;;3.87;3.60;;;34.70;33.40;;;;;;20467;6863;337563;31
2022/06/30 11:23:38;;;;;;;6.57;3.67;;;34.70;34.00;;;;;;20650;6863;118370;31
2022/06/30 11:28:48;;;;;;;4.00;3.80;;;34.60;32.70;;;;;;20655;6867;115357;31
2022/06/30 11:31:20;;;;;;;4.00;3.70;;;34.40;33.40;;;;;;20443;6864;309551;31
2022/06/30 11:33:55;;;;;;;4.13;3.83;;;34.50;33.20;;;;;;20434;6864;311118;31
2022/06/30 11:36:21;;;;;;;4.80;4.07;;;34.70;34.70;;;;;;20370;6864;117023;31
2022/06/30 11:38:59;;;;;;;4.47;4.07;;;34.70;33.90;;;;;;20466;6864;308607;31
2022/06/30 11:44:10;;;;;;;4.03;3.30;;;35.00;33.90;;;;;;20671;6864;117471;31
2022/06/30 11:46:52;;;;;;;6.73;4.17;;;34.80;33.80;;;;;;20671;6864;117663;31
2022/06/30 11:49:18;;;;;;;4.10;3.70;;;34.60;33.80;;;;;;20652;6864;117302;31
2022/06/30 11:51:44;;;;;;;4.07;3.60;;;34.40;33.60;;;;;;20430;6862;309631;31
2022/06/30 11:54:09;;;;;;;6.18;3.50;;;34.50;32.20;;;;;;20451;6863;281435;31
2022/06/30 11:56:55;;;;;;;5.90;4.00;;;34.70;33.00;;;;;;20674;6863;117627;31
2022/06/30 11:59:21;;;;;;;5.05;3.80;;;34.70;32.40;;;;;;20454;6863;340984;31
2022/06/30 12:02:00;;;;;;;3.77;3.47;;;34.70;31.70;;;;;;20438;6863;308557;31
2022/06/30 12:04:25;;;;;;;3.93;3.67;;;34.70;32.80;;;;;;20668;6863;123309;31
2022/06/30 12:06:52;;;;;;;4.40;3.63;;;34.60;32.90;;;;;;20687;6863;117458;31
2022/06/30 12:09:19;;;;;;;4.00;3.60;;;34.40;33.40;;;;;;20481;6863;320567;31
2022/06/30 12:11:49;;;;;;;4.43;3.67;;;34.50;33.60;;;;;;20456;6863;308930;31
2022/06/30 12:14:16;;;;;;;3.77;3.40;;;34.70;32.40;;;;;;20662;6863;117622;31
2022/06/30 12:16:41;;;;;;;3.53;3.23;;;34.70;32.00;;;;;;20687;6863;122856;31
2022/06/30 12:19:08;;;;;;;3.73;3.43;;;34.60;32.30;;;;;;20691;6863;117159;31
2022/06/30 12:21:34;;;;;;;4.00;3.70;;;34.40;31.90;;;;;;20685;6863;117371;31
2022/06/30 12:24:02;;;;;;;3.70;3.50;;;34.20;32.00;;;;;;20454;6863;278677;31
2022/06/30 12:26:28;;;;;;;6.03;3.73;;;34.40;31.90;;;;;;20679;6863;122323;31
2022/06/30 12:28:56;;;;;;;3.78;3.40;;;34.40;31.90;;;;;;20467;6863;308469;31
2022/06/30 12:31:25;;;;;;;3.63;3.30;;;34.50;33.00;;;;;;20668;6863;118238;31
2022/06/30 12:33:51;;;;;;;3.70;3.40;;;34.50;32.70;;;;;;20431;6863;311659;31
2022/06/30 12:36:16;;;;;;;4.97;3.70;;;34.60;32.40;;;;;;20675;6863;123764;31
2022/06/30 12:38:42;;;;;;;4.30;3.45;;;34.50;32.40;;;;;;20469;6863;324936;31
2022/06/30 12:41:08;;;;;;;6.97;3.40;;;34.50;32.70;;;;;;20675;6863;116908;31
2022/06/30 12:43:47;;;;;;;4.10;3.70;;;34.50;32.80;;;;;;20457;6863;311766;31
2022/06/30 12:46:13;;;;;;;3.90;3.50;;;34.60;32.70;;;;;;20462;6863;296866;31
2022/06/30 12:48:51;;;;;;;4.03;3.73;;;34.70;32.30;;;;;;20673;6863;116972;31
2022/06/30 12:51:31;;;;;;;3.83;3.50;;;34.70;31.80;;;;;;20466;6863;279344;31
2022/06/30 12:54:03;;;;;;;6.07;5.57;;;34.70;32.70;;;;;;20425;6863;304539;31
2022/06/30 12:56:28;;;;;;;3.95;3.60;;;34.90;31.70;;;;;;20467;6863;296262;31
2022/06/30 12:58:54;;;;;;;3.60;3.30;;;35.00;32.30;;;;;;20459;6863;294216;31
2022/06/30 13:01:26;;;;;;;3.77;3.47;;;35.20;32.40;;;;;;20657;6863;117483;31
2022/06/30 13:03:56;;;;;;;3.97;3.67;;;35.10;31.70;;;;;;20452;6862;311545;31